createdAt,value
2022-07-31T00:00:38.491Z,95258.66
2022-07-31T00:03:46.812Z,95258.06
2022-07-31T00:06:55.273Z,95255.91
2022-07-31T00:10:04.740Z,95255.31
2022-07-31T00:13:13.139Z,95258.75
2022-07-31T00:16:22.642Z,95253.84
2022-07-31T00:19:30.724Z,95250.75
2022-07-31T00:22:39.176Z,95256.69
2022-07-31T00:25:47.362Z,95259.00
2022-07-31T00:28:55.502Z,95248.56
2022-07-31T00:32:05.879Z,95247.28
2022-07-31T00:35:15.263Z,95240.38
2022-07-31T00:38:27.499Z,95247.28
2022-07-31T00:41:42.361Z,95244.44
2022-07-31T00:44:51.165Z,95244.09
2022-07-31T00:48:01.798Z,95250.88
2022-07-31T00:51:10.404Z,95246.06
2022-07-31T00:54:22.602Z,95247.63
2022-07-31T00:57:31.401Z,95241.84
2022-07-31T01:00:40.067Z,95245.63
2022-07-31T01:03:50.736Z,95250.00
2022-07-31T01:06:59.527Z,95249.47
2022-07-31T01:10:13.642Z,95247.50
2022-07-31T01:13:34.522Z,95254.00
2022-07-31T01:16:48.326Z,95250.13
2022-07-31T01:19:59.080Z,95253.91
2022-07-31T01:23:31.056Z,95249.56
2022-07-31T01:27:13.600Z,95247.84
2022-07-31T01:30:31.000Z,95244.59
2022-07-31T01:33:52.309Z,95241.75
2022-07-31T01:37:10.487Z,95246.28
2022-07-31T01:40:28.705Z,95243.66
2022-07-31T01:43:42.040Z,95236.41
2022-07-31T01:46:54.754Z,95238.16
2022-07-31T01:50:07.414Z,95242.63
2022-07-31T01:53:21.517Z,95243.22
2022-07-31T01:56:33.421Z,95242.91
2022-07-31T01:59:44.808Z,95231.34
2022-07-31T02:03:09.555Z,95229.53
2022-07-31T02:06:23.314Z,95231.34
2022-07-31T02:09:34.252Z,95234.78
2022-07-31T02:12:45.945Z,95233.34
2022-07-31T02:15:57.349Z,95228.06
2022-07-31T02:19:11.930Z,95230.94
2022-07-31T02:22:20.565Z,95233.00
2022-07-31T02:25:37.114Z,95231.72
2022-07-31T02:28:49.511Z,95229.75
2022-07-31T02:32:02.890Z,95226.81
2022-07-31T02:35:17.601Z,95228.53
2022-07-31T02:38:29.728Z,95226.31
2022-07-31T02:41:38.948Z,95223.47
2022-07-31T02:44:48.334Z,95218.47
2022-07-31T02:47:57.115Z,95215.13
2022-07-31T02:51:08.376Z,95227.16
2022-07-31T02:54:18.634Z,95221.91
2022-07-31T02:57:27.062Z,95221.97
2022-07-31T03:00:35.798Z,95216.63
2022-07-31T03:03:44.701Z,95226.38
2022-07-31T03:06:54.387Z,95220.34
2022-07-31T03:10:02.573Z,95224.06
2022-07-31T03:13:28.476Z,95226.13
2022-07-31T03:16:38.281Z,95227.94
2022-07-31T03:19:48.096Z,95224.16
2022-07-31T03:22:58.503Z,95217.06
2022-07-31T03:26:08.098Z,95226.63
2022-07-31T03:29:41.172Z,95225.34
2022-07-31T03:32:44.554Z,95226.38
2022-07-31T03:35:53.805Z,95220.97
2022-07-31T03:39:05.330Z,95223.53
2022-07-31T03:42:20.152Z,95223.81
2022-07-31T03:45:31.024Z,95231.50
2022-07-31T03:48:40.101Z,95216.47
2022-07-31T03:51:48.862Z,95221.13
2022-07-31T03:55:01.305Z,95221.66
2022-07-31T03:58:11.378Z,95226.81
2022-07-31T04:01:20.810Z,95228.81
2022-07-31T04:04:31.780Z,95218.97
2022-07-31T04:07:43.014Z,95223.88
2022-07-31T04:10:55.035Z,95226.22
2022-07-31T04:14:06.207Z,95229.81
2022-07-31T04:17:15.548Z,95234.81
2022-07-31T04:20:24.622Z,95236.97
2022-07-31T04:23:32.927Z,95229.59
2022-07-31T04:27:01.749Z,95232.09
2022-07-31T04:30:19.481Z,95237.44
2022-07-31T04:33:29.537Z,95239.84
2022-07-31T04:36:38.257Z,95240.28
2022-07-31T04:39:47.095Z,95250.50
2022-07-31T04:42:57.237Z,95249.84
2022-07-31T04:46:17.160Z,95253.47
2022-07-31T04:49:26.186Z,95249.63
2022-07-31T04:52:35.111Z,95246.25
2022-07-31T04:56:03.392Z,95252.84
2022-07-31T04:59:17.269Z,95252.44
2022-07-31T05:02:28.410Z,95255.53
2022-07-31T05:05:37.237Z,95252.22
2022-07-31T05:08:46.351Z,95250.63
2022-07-31T05:11:55.308Z,95251.50
2022-07-31T05:15:06.539Z,95248.72
2022-07-31T05:18:14.877Z,95242.91
2022-07-31T05:22:03.745Z,95250.59
2022-07-31T05:25:44.836Z,95239.94
2022-07-31T05:28:58.608Z,95240.59
2022-07-31T05:32:09.191Z,95242.28
2022-07-31T05:35:18.609Z,95243.53
2022-07-31T05:38:27.026Z,95242.28
2022-07-31T05:41:55.752Z,95252.75
2022-07-31T05:45:16.026Z,95246.06
2022-07-31T05:48:25.865Z,95246.78
2022-07-31T05:51:34.548Z,95251.09
2022-07-31T05:54:45.628Z,95251.22
2022-07-31T05:58:21.256Z,95262.25
2022-07-31T06:01:29.927Z,95264.81
2022-07-31T06:04:39.574Z,95270.94
2022-07-31T06:07:51.928Z,95267.75
2022-07-31T06:11:00.799Z,95272.59
2022-07-31T06:14:09.585Z,95269.38
2022-07-31T06:17:45.693Z,95280.75
2022-07-31T06:21:05.431Z,95277.66
2022-07-31T06:24:14.022Z,95282.81
2022-07-31T06:27:33.370Z,95275.78
2022-07-31T06:30:43.034Z,95278.38
2022-07-31T06:33:52.779Z,95268.13
2022-07-31T06:37:06.163Z,95272.19
2022-07-31T06:40:15.477Z,95276.72
2022-07-31T06:43:51.884Z,95270.72
2022-07-31T06:47:38.617Z,95275.31
2022-07-31T06:51:27.842Z,95274.81
2022-07-31T06:54:30.802Z,95268.84
2022-07-31T06:57:39.866Z,95280.63
2022-07-31T07:00:48.154Z,95270.88
2022-07-31T07:03:58.472Z,95271.84
2022-07-31T07:07:06.619Z,95282.91
2022-07-31T07:10:16.427Z,95278.41
2022-07-31T07:13:54.150Z,95278.88
2022-07-31T07:17:05.857Z,95286.13
2022-07-31T07:20:15.468Z,95285.41
2022-07-31T07:23:24.253Z,95281.09
2022-07-31T07:26:40.394Z,95287.66
2022-07-31T07:29:49.047Z,95281.88
2022-07-31T07:32:57.507Z,95282.66
2022-07-31T07:36:06.428Z,95281.41
2022-07-31T07:39:14.767Z,95284.09
2022-07-31T07:42:25.505Z,95285.31
2022-07-31T07:45:33.977Z,95276.63
2022-07-31T07:48:43.137Z,95276.63
2022-07-31T07:51:59.013Z,95273.88
2022-07-31T07:55:20.979Z,95272.84
2022-07-31T07:58:49.487Z,95258.91
2022-07-31T08:02:16.940Z,95258.69
2022-07-31T08:05:27.656Z,95256.44
2022-07-31T08:08:36.007Z,95261.84
2022-07-31T08:12:04.724Z,95254.59
2022-07-31T08:15:33.765Z,95260.88
2022-07-31T08:18:51.831Z,95256.72
2022-07-31T08:22:00.550Z,95259.00
2022-07-31T08:25:11.300Z,95266.31
2022-07-31T08:28:26.842Z,95255.16
2022-07-31T08:31:36.831Z,95253.25
2022-07-31T08:35:20.766Z,95256.59
2022-07-31T08:38:30.161Z,95255.16
2022-07-31T08:42:06.718Z,95263.66
2022-07-31T08:45:16.423Z,95264.66
2022-07-31T08:48:43.056Z,95268.34
2022-07-31T08:51:52.959Z,95260.69
2022-07-31T08:55:54.974Z,95261.88
2022-07-31T08:58:51.152Z,95257.19
2022-07-31T09:01:59.664Z,95259.06
2022-07-31T09:05:14.076Z,95252.00
2022-07-31T09:08:23.915Z,95256.44
2022-07-31T09:11:34.034Z,95251.81
2022-07-31T09:15:22.734Z,95249.88
2022-07-31T09:18:32.173Z,95247.59
2022-07-31T09:21:49.866Z,95238.06
2022-07-31T09:25:11.912Z,95249.34
2022-07-31T09:28:25.014Z,95245.94
2022-07-31T09:31:34.454Z,95234.34
2022-07-31T09:35:21.091Z,95235.28
2022-07-31T09:38:36.352Z,95238.19
2022-07-31T09:42:16.852Z,95241.69
2022-07-31T09:45:48.425Z,95239.44
2022-07-31T09:49:00.146Z,95226.06
2022-07-31T09:52:20.683Z,95231.59
2022-07-31T09:55:31.107Z,95226.63
2022-07-31T09:58:41.280Z,95219.81
2022-07-31T10:01:51.303Z,95228.44
2022-07-31T10:05:01.121Z,95226.38
2022-07-31T10:08:13.095Z,95215.84
2022-07-31T10:11:56.879Z,95215.16
2022-07-31T10:15:13.034Z,95211.69
2022-07-31T10:18:35.517Z,95204.97
2022-07-31T10:22:20.197Z,95211.59
2022-07-31T10:25:32.573Z,95212.03
2022-07-31T10:28:44.780Z,95206.19
2022-07-31T10:31:53.624Z,95207.59
2022-07-31T10:35:07.638Z,95203.69
2022-07-31T10:38:48.717Z,95199.78
2022-07-31T10:42:30.713Z,95195.25
2022-07-31T10:45:50.369Z,95196.50
2022-07-31T10:49:19.642Z,95193.06
2022-07-31T10:52:39.821Z,95186.25
2022-07-31T10:56:03.716Z,95196.91
2022-07-31T10:59:31.491Z,95199.91
2022-07-31T11:03:02.503Z,95183.63
2022-07-31T11:06:43.217Z,95171.25
2022-07-31T11:10:20.500Z,95172.00
2022-07-31T11:14:00.228Z,95181.84
2022-07-31T11:18:22.699Z,95183.69
2022-07-31T11:21:37.776Z,95183.78
2022-07-31T11:24:41.068Z,95169.22
2022-07-31T11:27:50.603Z,95173.97
2022-07-31T11:31:03.378Z,95158.41
2022-07-31T11:34:11.882Z,95161.56
2022-07-31T11:37:24.561Z,95160.31
2022-07-31T11:40:32.843Z,95154.94
2022-07-31T11:43:46.337Z,95161.03
2022-07-31T11:46:56.474Z,95164.91
2022-07-31T11:50:06.019Z,95164.69
2022-07-31T11:53:16.365Z,95170.94
2022-07-31T11:56:27.417Z,95168.66
2022-07-31T11:59:45.871Z,95166.34
2022-07-31T12:02:58.797Z,95171.59
2022-07-31T12:06:10.021Z,95169.69
2022-07-31T12:10:02.657Z,95165.44
2022-07-31T12:12:48.540Z,95161.50
2022-07-31T12:16:04.118Z,95166.59
2022-07-31T12:19:12.620Z,95144.69
2022-07-31T12:22:21.940Z,95148.03
2022-07-31T12:25:41.802Z,95137.28
2022-07-31T12:28:59.623Z,95141.47
2022-07-31T12:32:09.193Z,95141.56
2022-07-31T12:35:17.631Z,95133.88
2022-07-31T12:38:45.541Z,95137.97
2022-07-31T12:41:59.450Z,95135.66
2022-07-31T12:45:18.513Z,95136.91
2022-07-31T12:48:36.269Z,95129.78
2022-07-31T12:51:47.838Z,95133.31
2022-07-31T12:54:56.657Z,95127.63
2022-07-31T12:58:06.588Z,95122.41
2022-07-31T13:01:15.098Z,95113.78
2022-07-31T13:04:23.843Z,95113.75
2022-07-31T13:07:44.274Z,95108.38
2022-07-31T13:10:53.673Z,95101.78
2022-07-31T13:14:03.860Z,95099.25
2022-07-31T13:17:13.852Z,95100.34
2022-07-31T13:20:25.741Z,95104.81
2022-07-31T13:23:34.603Z,95102.25
2022-07-31T13:26:45.375Z,95103.59
2022-07-31T13:29:55.463Z,95101.53
2022-07-31T13:33:04.138Z,95102.41
2022-07-31T13:36:12.967Z,95093.25
2022-07-31T13:39:22.690Z,95098.59
2022-07-31T13:42:31.518Z,95104.03
2022-07-31T13:45:43.264Z,95104.47
2022-07-31T13:48:56.654Z,95099.91
2022-07-31T13:52:08.069Z,95097.25
2022-07-31T13:55:16.889Z,95094.75
2022-07-31T13:58:27.195Z,95083.13
2022-07-31T14:02:03.662Z,95085.94
2022-07-31T14:05:07.408Z,95091.75
2022-07-31T14:08:33.477Z,95087.91
2022-07-31T14:11:45.742Z,95081.13
2022-07-31T14:14:54.294Z,95076.00
2022-07-31T14:18:08.150Z,95076.22
2022-07-31T14:21:16.911Z,95072.84
2022-07-31T14:24:26.152Z,95071.31
2022-07-31T14:27:35.865Z,95075.72
2022-07-31T14:30:46.777Z,95063.63
2022-07-31T14:33:59.490Z,95059.16
2022-07-31T14:37:08.317Z,95055.97
2022-07-31T14:40:18.174Z,95062.47
2022-07-31T14:43:26.838Z,95059.41
2022-07-31T14:46:35.442Z,95048.41
2022-07-31T14:50:09.647Z,95053.19
2022-07-31T14:53:13.680Z,95053.75
2022-07-31T14:56:39.675Z,95048.34
2022-07-31T14:59:52.064Z,95048.88
2022-07-31T15:03:00.784Z,95046.09
2022-07-31T15:06:50.834Z,95044.75
2022-07-31T15:09:42.767Z,95041.28
2022-07-31T15:12:51.209Z,95043.50
2022-07-31T15:15:59.628Z,95039.94
2022-07-31T15:19:08.329Z,95057.22
2022-07-31T15:22:20.519Z,95042.16
2022-07-31T15:25:29.014Z,95044.03
2022-07-31T15:28:37.458Z,95050.97
2022-07-31T15:31:45.939Z,95046.00
2022-07-31T15:34:54.122Z,95044.50
2022-07-31T15:38:03.721Z,95044.63
2022-07-31T15:41:12.361Z,95036.50
2022-07-31T15:44:27.572Z,95046.91
2022-07-31T15:47:36.349Z,95049.72
2022-07-31T15:50:44.986Z,95039.44
2022-07-31T15:53:54.590Z,95027.09
2022-07-31T15:57:04.625Z,95019.91
2022-07-31T16:00:14.704Z,95020.22
2022-07-31T16:03:22.857Z,95016.91
2022-07-31T16:06:32.231Z,95018.38
2022-07-31T16:10:03.548Z,95017.56
2022-07-31T16:13:12.085Z,95011.34
2022-07-31T16:16:21.124Z,95013.94
2022-07-31T16:19:31.097Z,95013.63
2022-07-31T16:22:45.091Z,95009.81
2022-07-31T16:25:55.039Z,95008.97
2022-07-31T16:29:03.714Z,95006.31
2022-07-31T16:32:12.029Z,95010.00
2022-07-31T16:35:20.355Z,94998.69
2022-07-31T16:38:28.837Z,94995.44
2022-07-31T16:41:54.438Z,94987.09
2022-07-31T16:45:04.823Z,94994.19
2022-07-31T16:48:13.352Z,94994.63
2022-07-31T16:51:21.505Z,94991.38
2022-07-31T16:54:29.740Z,94995.75
2022-07-31T16:57:39.224Z,94989.69
2022-07-31T17:00:48.894Z,94986.25
2022-07-31T17:04:01.228Z,94986.19
2022-07-31T17:07:11.220Z,94985.94
2022-07-31T17:10:19.644Z,94993.34
2022-07-31T17:13:29.555Z,94985.94
2022-07-31T17:16:38.105Z,94979.38
2022-07-31T17:19:47.614Z,94977.63
2022-07-31T17:22:56.047Z,94979.81
2022-07-31T17:26:04.795Z,94983.63
2022-07-31T17:29:14.391Z,94988.94
2022-07-31T17:32:22.847Z,94994.66
2022-07-31T17:35:31.379Z,94992.13
2022-07-31T17:38:39.683Z,94988.34
2022-07-31T17:41:49.260Z,94995.94
2022-07-31T17:44:58.899Z,94997.44
2022-07-31T17:48:08.161Z,95000.59
2022-07-31T17:51:16.921Z,95011.06
2022-07-31T17:54:25.787Z,95009.66
2022-07-31T17:57:36.475Z,95007.41
2022-07-31T18:00:46.272Z,95011.31
2022-07-31T18:03:54.852Z,95020.53
2022-07-31T18:07:05.206Z,95015.00
2022-07-31T18:10:13.678Z,95015.22
2022-07-31T18:13:25.009Z,95025.63
2022-07-31T18:16:34.626Z,95017.63
2022-07-31T18:19:43.185Z,95021.63
2022-07-31T18:22:52.221Z,95016.34
2022-07-31T18:26:00.918Z,95012.16
2022-07-31T18:29:09.578Z,95011.84
2022-07-31T18:32:19.888Z,95015.00
2022-07-31T18:35:29.380Z,95015.22
2022-07-31T18:38:38.122Z,95013.34
2022-07-31T18:41:49.092Z,95017.72
2022-07-31T18:44:58.145Z,95005.56
2022-07-31T18:48:08.142Z,95003.53
2022-07-31T18:51:19.797Z,95006.75
2022-07-31T18:54:28.645Z,95012.25
2022-07-31T18:57:37.254Z,95010.84
2022-07-31T19:00:45.878Z,95015.28
2022-07-31T19:03:56.088Z,95015.06
2022-07-31T19:07:14.489Z,95009.28
2022-07-31T19:10:29.395Z,95018.47
2022-07-31T19:13:43.093Z,95020.81
2022-07-31T19:16:58.086Z,95023.09
2022-07-31T19:20:12.697Z,95030.31
2022-07-31T19:23:41.149Z,95025.63
2022-07-31T19:26:49.652Z,95028.19
2022-07-31T19:29:59.185Z,95024.78
2022-07-31T19:33:10.861Z,95032.28
2022-07-31T19:36:29.559Z,95032.38
2022-07-31T19:39:38.193Z,95034.31
2022-07-31T19:42:46.613Z,95035.53
2022-07-31T19:46:00.545Z,95034.31
2022-07-31T19:49:20.710Z,95030.06
2022-07-31T19:52:30.610Z,95032.00
2022-07-31T19:55:41.666Z,95034.69
2022-07-31T19:58:51.255Z,95024.66
2022-07-31T20:01:59.929Z,95029.59
2022-07-31T20:05:10.545Z,95029.22
2022-07-31T20:08:20.343Z,95022.72
2022-07-31T20:11:31.705Z,95021.97
2022-07-31T20:14:40.468Z,95022.78
2022-07-31T20:17:49.281Z,95022.81
2022-07-31T20:21:00.808Z,95029.81
2022-07-31T20:24:11.708Z,95028.69
2022-07-31T20:27:20.614Z,95027.97
2022-07-31T20:30:29.172Z,95012.91
2022-07-31T20:33:38.379Z,95015.22
2022-07-31T20:36:46.656Z,95013.66
2022-07-31T20:39:56.974Z,95015.50
2022-07-31T20:43:05.368Z,95022.47
2022-07-31T20:46:15.727Z,95017.06
2022-07-31T20:49:35.379Z,95019.75
2022-07-31T20:52:48.493Z,95020.91
2022-07-31T20:55:59.330Z,95016.72
2022-07-31T20:59:07.671Z,95016.00
2022-07-31T21:02:16.197Z,95010.22
2022-07-31T21:05:29.322Z,95012.09
2022-07-31T21:08:39.300Z,95007.13
2022-07-31T21:11:49.129Z,94997.44
2022-07-31T21:14:57.451Z,95004.44
2022-07-31T21:18:07.238Z,95001.34
2022-07-31T21:21:16.753Z,94990.97
2022-07-31T21:24:25.779Z,94990.66
2022-07-31T21:27:37.251Z,94988.31
2022-07-31T21:30:46.311Z,94988.34
2022-07-31T21:33:55.432Z,94993.72
2022-07-31T21:37:03.870Z,94985.34
2022-07-31T21:40:17.107Z,94992.34
2022-07-31T21:43:30.518Z,94994.69
2022-07-31T21:46:51.745Z,94994.31
2022-07-31T21:50:02.934Z,94985.50
2022-07-31T21:53:11.462Z,94983.63
2022-07-31T21:56:19.763Z,94990.94
2022-07-31T21:59:29.824Z,94994.47
2022-07-31T22:02:38.207Z,94991.00
2022-07-31T22:06:04.078Z,94997.19
2022-07-31T22:09:12.622Z,94994.50
2022-07-31T22:12:21.848Z,94999.91
2022-07-31T22:15:59.187Z,94994.13
2022-07-31T22:19:03.231Z,94983.69
2022-07-31T22:22:13.225Z,94989.06
2022-07-31T22:25:22.803Z,94988.34
2022-07-31T22:28:32.576Z,94989.09
2022-07-31T22:31:49.905Z,94983.34
2022-07-31T22:35:02.165Z,94990.66
2022-07-31T22:38:11.130Z,94986.03
2022-07-31T22:41:19.777Z,94976.81
2022-07-31T22:44:28.566Z,94981.84
2022-07-31T22:47:40.280Z,94982.97
2022-07-31T22:50:48.973Z,94986.06
2022-07-31T22:53:57.311Z,94976.81
2022-07-31T22:57:05.883Z,94980.69
2022-07-31T23:00:18.184Z,94982.19
2022-07-31T23:03:27.811Z,94975.28
2022-07-31T23:06:36.349Z,94983.81
2022-07-31T23:09:44.899Z,94984.16
2022-07-31T23:12:53.315Z,94980.72
2022-07-31T23:16:01.711Z,94978.41
2022-07-31T23:19:12.065Z,94981.09
2022-07-31T23:22:20.531Z,94977.25
2022-07-31T23:25:41.818Z,94969.13
2022-07-31T23:28:49.955Z,94976.50
2022-07-31T23:31:58.146Z,94979.59
2022-07-31T23:35:09.035Z,94975.38
2022-07-31T23:38:17.425Z,94973.44
2022-07-31T23:41:43.067Z,94978.44
2022-07-31T23:44:52.569Z,94971.88
2022-07-31T23:48:00.866Z,94969.59
2022-07-31T23:51:10.723Z,94969.59
2022-07-31T23:54:18.986Z,94974.97
2022-07-31T23:57:27.494Z,94966.88
